sensor_id;sensor_type;location;lat;lon;timestamp;P1;durP1;ratioP1;P2;durP2;ratioP2
59854;SDS011;45732;52.850;6.896;2023-02-18T00:02:03;16.48;;;3.00;;
59854;SDS011;45732;52.850;6.896;2023-02-18T00:04:30;15.98;;;3.00;;
59854;SDS011;45732;52.850;6.896;2023-02-18T00:06:56;13.85;;;2.88;;
59854;SDS011;45732;52.850;6.896;2023-02-18T00:09:21;13.82;;;2.95;;
59854;SDS011;45732;52.850;6.896;2023-02-18T00:11:47;9.63;;;2.50;;
59854;SDS011;45732;52.850;6.896;2023-02-18T00:14:13;14.60;;;2.72;;
59854;SDS011;45732;52.850;6.896;2023-02-18T00:16:40;12.48;;;2.72;;
59854;SDS011;45732;52.850;6.896;2023-02-18T00:19:09;13.75;;;3.42;;
59854;SDS011;45732;52.850;6.896;2023-02-18T00:21:37;19.40;;;3.20;;
59854;SDS011;45732;52.850;6.896;2023-02-18T00:24:03;14.18;;;2.80;;
59854;SDS011;45732;52.850;6.896;2023-02-18T00:26:30;15.68;;;3.00;;
59854;SDS011;45732;52.850;6.896;2023-02-18T00:28:56;13.23;;;3.00;;
59854;SDS011;45732;52.850;6.896;2023-02-18T00:31:32;14.25;;;3.05;;
59854;SDS011;45732;52.850;6.896;2023-02-18T00:34:00;16.20;;;3.13;;
59854;SDS011;45732;52.850;6.896;2023-02-18T00:36:26;14.52;;;2.95;;
59854;SDS011;45732;52.850;6.896;2023-02-18T00:38:57;12.38;;;2.78;;
59854;SDS011;45732;52.850;6.896;2023-02-18T00:41:24;14.27;;;2.80;;
59854;SDS011;45732;52.850;6.896;2023-02-18T00:43:51;13.07;;;2.65;;
59854;SDS011;45732;52.850;6.896;2023-02-18T00:46:17;13.40;;;3.03;;
59854;SDS011;45732;52.850;6.896;2023-02-18T00:48:43;14.90;;;2.90;;
59854;SDS011;45732;52.850;6.896;2023-02-18T00:51:09;14.98;;;2.97;;
59854;SDS011;45732;52.850;6.896;2023-02-18T00:53:36;14.98;;;2.92;;
59854;SDS011;45732;52.850;6.896;2023-02-18T00:56:03;15.35;;;3.25;;
59854;SDS011;45732;52.850;6.896;2023-02-18T00:58:29;20.50;;;3.45;;
59854;SDS011;45732;52.850;6.896;2023-02-18T01:00:55;16.38;;;3.45;;
59854;SDS011;45732;52.850;6.896;2023-02-18T01:03:22;14.07;;;2.92;;
59854;SDS011;45732;52.850;6.896;2023-02-18T01:05:48;12.65;;;2.85;;
59854;SDS011;45732;52.850;6.896;2023-02-18T01:08:15;15.82;;;3.50;;
59854;SDS011;45732;52.850;6.896;2023-02-18T01:10:43;19.45;;;3.13;;
59854;SDS011;45732;52.850;6.896;2023-02-18T01:13:11;15.93;;;3.22;;
59854;SDS011;45732;52.850;6.896;2023-02-18T01:15:38;14.50;;;3.13;;
59854;SDS011;45732;52.850;6.896;2023-02-18T01:18:05;14.00;;;3.20;;
59854;SDS011;45732;52.850;6.896;2023-02-18T01:20:32;16.58;;;3.40;;
59854;SDS011;45732;52.850;6.896;2023-02-18T01:23:01;14.00;;;4.10;;
59854;SDS011;45732;52.850;6.896;2023-02-18T01:25:27;14.82;;;3.30;;
59854;SDS011;45732;52.850;6.896;2023-02-18T01:27:53;15.40;;;4.32;;
59854;SDS011;45732;52.850;6.896;2023-02-18T01:30:19;16.02;;;3.50;;
59854;SDS011;45732;52.850;6.896;2023-02-18T01:32:46;19.13;;;3.75;;
59854;SDS011;45732;52.850;6.896;2023-02-18T01:35:12;14.32;;;3.78;;
59854;SDS011;45732;52.850;6.896;2023-02-18T01:37:42;17.38;;;4.05;;
59854;SDS011;45732;52.850;6.896;2023-02-18T01:40:08;22.42;;;4.32;;
59854;SDS011;45732;52.850;6.896;2023-02-18T01:42:35;13.48;;;3.40;;
59854;SDS011;45732;52.850;6.896;2023-02-18T01:48:01;14.95;;;4.55;;
59854;SDS011;45732;52.850;6.896;2023-02-18T01:50:31;17.67;;;4.05;;
59854;SDS011;45732;52.850;6.896;2023-02-18T01:53:00;18.10;;;5.00;;
59854;SDS011;45732;52.850;6.896;2023-02-18T01:55:27;17.38;;;4.88;;
59854;SDS011;45732;52.850;6.896;2023-02-18T01:57:53;17.05;;;5.05;;
59854;SDS011;45732;52.850;6.896;2023-02-18T02:00:19;16.08;;;5.05;;
59854;SDS011;45732;52.850;6.896;2023-02-18T02:02:49;18.38;;;5.18;;
59854;SDS011;45732;52.850;6.896;2023-02-18T02:05:17;21.02;;;6.03;;
59854;SDS011;45732;52.850;6.896;2023-02-18T02:07:44;19.40;;;5.80;;
59854;SDS011;45732;52.850;6.896;2023-02-18T02:10:13;17.00;;;5.90;;
59854;SDS011;45732;52.850;6.896;2023-02-18T02:12:49;16.92;;;5.57;;
59854;SDS011;45732;52.850;6.896;2023-02-18T02:18:14;18.83;;;6.45;;
59854;SDS011;45732;52.850;6.896;2023-02-18T02:21:02;18.15;;;6.35;;
59854;SDS011;45732;52.850;6.896;2023-02-18T02:50:53;23.17;;;8.43;;
59854;SDS011;45732;52.850;6.896;2023-02-18T02:53:40;21.45;;;8.43;;
59854;SDS011;45732;52.850;6.896;2023-02-18T02:56:14;25.23;;;8.57;;
59854;SDS011;45732;52.850;6.896;2023-02-18T02:58:41;20.85;;;7.97;;
59854;SDS011;45732;52.850;6.896;2023-02-18T03:01:16;19.02;;;8.32;;
59854;SDS011;45732;52.850;6.896;2023-02-18T03:04:12;20.02;;;7.97;;
59854;SDS011;45732;52.850;6.896;2023-02-18T03:09:25;19.45;;;8.18;;
59854;SDS011;45732;52.850;6.896;2023-02-18T03:12:35;20.77;;;8.52;;
59854;SDS011;45732;52.850;6.896;2023-02-18T03:15:12;24.27;;;8.57;;
59854;SDS011;45732;52.850;6.896;2023-02-18T03:20:25;22.13;;;9.00;;
59854;SDS011;45732;52.850;6.896;2023-02-18T03:22:58;22.85;;;10.55;;
59854;SDS011;45732;52.850;6.896;2023-02-18T03:25:25;25.20;;;9.98;;
59854;SDS011;45732;52.850;6.896;2023-02-18T03:27:52;25.38;;;9.88;;
59854;SDS011;45732;52.850;6.896;2023-02-18T03:30:29;21.58;;;10.40;;
59854;SDS011;45732;52.850;6.896;2023-02-18T03:33:07;27.08;;;12.20;;
59854;SDS011;45732;52.850;6.896;2023-02-18T03:35:35;28.02;;;12.90;;
59854;SDS011;45732;52.850;6.896;2023-02-18T03:38:11;28.20;;;13.85;;
59854;SDS011;45732;52.850;6.896;2023-02-18T03:41:00;27.95;;;14.30;;
59854;SDS011;45732;52.850;6.896;2023-02-18T03:43:27;31.25;;;14.90;;
59854;SDS011;45732;52.850;6.896;2023-02-18T03:45:53;29.20;;;16.25;;
59854;SDS011;45732;52.850;6.896;2023-02-18T03:48:19;33.17;;;16.70;;
59854;SDS011;45732;52.850;6.896;2023-02-18T03:50:44;32.78;;;18.10;;
59854;SDS011;45732;52.850;6.896;2023-02-18T03:53:10;43.33;;;19.70;;
59854;SDS011;45732;52.850;6.896;2023-02-18T03:55:36;36.33;;;19.80;;
59854;SDS011;45732;52.850;6.896;2023-02-18T03:58:01;39.55;;;20.75;;
59854;SDS011;45732;52.850;6.896;2023-02-18T04:00:27;42.72;;;22.55;;
59854;SDS011;45732;52.850;6.896;2023-02-18T04:02:53;39.22;;;21.80;;
59854;SDS011;45732;52.850;6.896;2023-02-18T04:05:18;42.53;;;22.33;;
59854;SDS011;45732;52.850;6.896;2023-02-18T04:07:44;45.63;;;23.13;;
59854;SDS011;45732;52.850;6.896;2023-02-18T04:10:10;41.53;;;23.17;;
59854;SDS011;45732;52.850;6.896;2023-02-18T04:12:36;42.25;;;23.73;;
59854;SDS011;45732;52.850;6.896;2023-02-18T04:15:01;45.70;;;24.90;;
59854;SDS011;45732;52.850;6.896;2023-02-18T04:17:27;45.65;;;24.48;;
59854;SDS011;45732;52.850;6.896;2023-02-18T04:19:53;41.58;;;25.58;;
59854;SDS011;45732;52.850;6.896;2023-02-18T04:22:19;42.88;;;25.45;;
59854;SDS011;45732;52.850;6.896;2023-02-18T04:24:44;49.60;;;25.75;;
59854;SDS011;45732;52.850;6.896;2023-02-18T04:27:10;47.40;;;25.50;;
59854;SDS011;45732;52.850;6.896;2023-02-18T04:29:36;43.88;;;25.38;;
59854;SDS011;45732;52.850;6.896;2023-02-18T04:32:02;42.55;;;25.17;;
59854;SDS011;45732;52.850;6.896;2023-02-18T04:34:28;46.70;;;27.08;;
59854;SDS011;45732;52.850;6.896;2023-02-18T04:36:54;48.90;;;27.33;;
59854;SDS011;45732;52.850;6.896;2023-02-18T04:39:20;52.63;;;28.52;;
59854;SDS011;45732;52.850;6.896;2023-02-18T04:41:45;46.38;;;28.00;;
59854;SDS011;45732;52.850;6.896;2023-02-18T04:44:11;50.45;;;28.58;;
59854;SDS011;45732;52.850;6.896;2023-02-18T04:46:37;49.15;;;28.02;;
59854;SDS011;45732;52.850;6.896;2023-02-18T04:49:02;51.17;;;28.73;;
59854;SDS011;45732;52.850;6.896;2023-02-18T04:51:28;54.75;;;29.73;;
59854;SDS011;45732;52.850;6.896;2023-02-18T04:53:54;47.17;;;28.70;;
59854;SDS011;45732;52.850;6.896;2023-02-18T04:56:20;48.10;;;29.25;;
59854;SDS011;45732;52.850;6.896;2023-02-18T04:58:45;51.45;;;30.77;;
59854;SDS011;45732;52.850;6.896;2023-02-18T05:01:11;55.00;;;30.25;;
59854;SDS011;45732;52.850;6.896;2023-02-18T05:03:37;54.38;;;30.20;;
59854;SDS011;45732;52.850;6.896;2023-02-18T05:06:02;56.40;;;31.95;;
59854;SDS011;45732;52.850;6.896;2023-02-18T05:08:28;61.42;;;31.75;;
59854;SDS011;45732;52.850;6.896;2023-02-18T05:10:54;60.75;;;32.70;;
59854;SDS011;45732;52.850;6.896;2023-02-18T05:13:19;60.40;;;32.42;;
59854;SDS011;45732;52.850;6.896;2023-02-18T05:15:47;62.65;;;32.75;;
59854;SDS011;45732;52.850;6.896;2023-02-18T05:18:13;65.32;;;33.20;;
59854;SDS011;45732;52.850;6.896;2023-02-18T05:20:38;68.30;;;33.47;;
59854;SDS011;45732;52.850;6.896;2023-02-18T05:23:04;57.80;;;32.58;;
59854;SDS011;45732;52.850;6.896;2023-02-18T05:25:30;64.22;;;32.67;;
59854;SDS011;45732;52.850;6.896;2023-02-18T05:27:56;61.47;;;32.47;;
59854;SDS011;45732;52.850;6.896;2023-02-18T05:30:21;60.88;;;33.30;;
59854;SDS011;45732;52.850;6.896;2023-02-18T05:32:47;67.45;;;31.75;;
59854;SDS011;45732;52.850;6.896;2023-02-18T05:35:13;69.53;;;33.58;;
59854;SDS011;45732;52.850;6.896;2023-02-18T05:37:38;68.85;;;32.00;;
59854;SDS011;45732;52.850;6.896;2023-02-18T05:40:04;76.72;;;32.97;;
59854;SDS011;45732;52.850;6.896;2023-02-18T05:42:31;66.25;;;31.00;;
59854;SDS011;45732;52.850;6.896;2023-02-18T05:44:57;61.88;;;30.25;;
59854;SDS011;45732;52.850;6.896;2023-02-18T05:47:26;72.88;;;30.70;;
59854;SDS011;45732;52.850;6.896;2023-02-18T05:49:52;62.58;;;29.27;;
59854;SDS011;45732;52.850;6.896;2023-02-18T05:52:19;57.25;;;26.70;;
59854;SDS011;45732;52.850;6.896;2023-02-18T05:54:46;54.88;;;25.63;;
59854;SDS011;45732;52.850;6.896;2023-02-18T05:57:12;52.65;;;23.55;;
59854;SDS011;45732;52.850;6.896;2023-02-18T05:59:39;57.92;;;24.92;;
59854;SDS011;45732;52.850;6.896;2023-02-18T06:02:05;55.78;;;23.85;;
59854;SDS011;45732;52.850;6.896;2023-02-18T06:04:31;51.10;;;22.15;;
59854;SDS011;45732;52.850;6.896;2023-02-18T06:06:56;47.13;;;21.95;;
59854;SDS011;45732;52.850;6.896;2023-02-18T06:09:22;48.42;;;21.45;;
59854;SDS011;45732;52.850;6.896;2023-02-18T06:11:48;51.40;;;22.35;;
59854;SDS011;45732;52.850;6.896;2023-02-18T06:14:14;46.17;;;21.20;;
59854;SDS011;45732;52.850;6.896;2023-02-18T06:16:40;46.63;;;20.30;;
59854;SDS011;45732;52.850;6.896;2023-02-18T06:19:05;53.85;;;20.55;;
59854;SDS011;45732;52.850;6.896;2023-02-18T06:21:31;44.55;;;19.42;;
59854;SDS011;45732;52.850;6.896;2023-02-18T06:23:57;46.13;;;20.30;;
59854;SDS011;45732;52.850;6.896;2023-02-18T06:26:23;40.85;;;17.85;;
59854;SDS011;45732;52.850;6.896;2023-02-18T06:28:49;43.35;;;18.58;;
59854;SDS011;45732;52.850;6.896;2023-02-18T06:31:15;45.83;;;18.63;;
59854;SDS011;45732;52.850;6.896;2023-02-18T06:33:40;41.55;;;17.50;;
59854;SDS011;45732;52.850;6.896;2023-02-18T06:36:07;34.83;;;16.05;;
59854;SDS011;45732;52.850;6.896;2023-02-18T06:38:38;37.40;;;16.23;;
59854;SDS011;45732;52.850;6.896;2023-02-18T06:41:05;38.83;;;16.70;;
59854;SDS011;45732;52.850;6.896;2023-02-18T06:43:31;39.15;;;16.02;;
59854;SDS011;45732;52.850;6.896;2023-02-18T06:45:56;33.30;;;14.93;;
59854;SDS011;45732;52.850;6.896;2023-02-18T06:48:22;33.60;;;14.80;;
59854;SDS011;45732;52.850;6.896;2023-02-18T06:50:48;31.20;;;13.50;;
59854;SDS011;45732;52.850;6.896;2023-02-18T06:53:14;25.85;;;12.23;;
59854;SDS011;45732;52.850;6.896;2023-02-18T06:55:41;23.30;;;10.88;;
59854;SDS011;45732;52.850;6.896;2023-02-18T06:58:08;22.70;;;10.27;;
59854;SDS011;45732;52.850;6.896;2023-02-18T07:00:35;18.60;;;9.68;;
59854;SDS011;45732;52.850;6.896;2023-02-18T07:03:01;17.13;;;8.93;;
59854;SDS011;45732;52.850;6.896;2023-02-18T07:05:27;15.40;;;8.23;;
59854;SDS011;45732;52.850;6.896;2023-02-18T07:07:53;17.45;;;8.57;;
59854;SDS011;45732;52.850;6.896;2023-02-18T07:10:19;14.82;;;7.82;;
59854;SDS011;45732;52.850;6.896;2023-02-18T07:12:45;16.30;;;8.18;;
59854;SDS011;45732;52.850;6.896;2023-02-18T07:15:11;13.85;;;8.20;;
59854;SDS011;45732;52.850;6.896;2023-02-18T07:17:36;14.95;;;8.65;;
59854;SDS011;45732;52.850;6.896;2023-02-18T07:20:02;15.95;;;9.57;;
59854;SDS011;45732;52.850;6.896;2023-02-18T07:22:29;15.95;;;9.85;;
59854;SDS011;45732;52.850;6.896;2023-02-18T07:24:55;18.15;;;11.10;;
59854;SDS011;45732;52.850;6.896;2023-02-18T07:27:21;19.00;;;12.07;;
59854;SDS011;45732;52.850;6.896;2023-02-18T07:29:47;20.33;;;12.82;;
59854;SDS011;45732;52.850;6.896;2023-02-18T07:32:14;23.88;;;15.38;;
59854;SDS011;45732;52.850;6.896;2023-02-18T07:34:40;24.08;;;16.27;;
59854;SDS011;45732;52.850;6.896;2023-02-18T07:37:06;27.08;;;17.13;;
59854;SDS011;45732;52.850;6.896;2023-02-18T07:39:33;25.10;;;17.38;;
59854;SDS011;45732;52.850;6.896;2023-02-18T07:42:01;28.27;;;17.58;;
59854;SDS011;45732;52.850;6.896;2023-02-18T07:44:27;23.85;;;16.45;;
59854;SDS011;45732;52.850;6.896;2023-02-18T07:46:53;26.88;;;17.30;;
59854;SDS011;45732;52.850;6.896;2023-02-18T07:49:18;26.67;;;19.00;;
59854;SDS011;45732;52.850;6.896;2023-02-18T07:51:47;29.55;;;19.05;;
59854;SDS011;45732;52.850;6.896;2023-02-18T07:54:14;31.05;;;20.45;;
59854;SDS011;45732;52.850;6.896;2023-02-18T07:56:40;31.02;;;20.42;;
59854;SDS011;45732;52.850;6.896;2023-02-18T07:59:07;28.75;;;18.65;;
59854;SDS011;45732;52.850;6.896;2023-02-18T08:01:33;31.23;;;19.50;;
59854;SDS011;45732;52.850;6.896;2023-02-18T08:03:58;28.27;;;17.38;;
59854;SDS011;45732;52.850;6.896;2023-02-18T08:06:25;24.67;;;16.77;;
59854;SDS011;45732;52.850;6.896;2023-02-18T08:08:55;23.05;;;15.10;;
59854;SDS011;45732;52.850;6.896;2023-02-18T08:11:21;23.60;;;14.77;;
59854;SDS011;45732;52.850;6.896;2023-02-18T08:13:47;27.23;;;14.77;;
59854;SDS011;45732;52.850;6.896;2023-02-18T08:16:13;21.30;;;13.10;;
59854;SDS011;45732;52.850;6.896;2023-02-18T08:18:40;20.88;;;12.30;;
59854;SDS011;45732;52.850;6.896;2023-02-18T08:21:06;25.25;;;12.82;;
59854;SDS011;45732;52.850;6.896;2023-02-18T08:23:31;18.05;;;11.50;;
59854;SDS011;45732;52.850;6.896;2023-02-18T08:25:57;20.08;;;10.93;;
59854;SDS011;45732;52.850;6.896;2023-02-18T08:28:23;20.88;;;9.98;;
59854;SDS011;45732;52.850;6.896;2023-02-18T08:30:50;18.95;;;10.13;;
59854;SDS011;45732;52.850;6.896;2023-02-18T08:33:18;20.15;;;10.63;;
59854;SDS011;45732;52.850;6.896;2023-02-18T08:35:45;17.27;;;10.05;;
59854;SDS011;45732;52.850;6.896;2023-02-18T08:38:11;20.65;;;10.23;;
59854;SDS011;45732;52.850;6.896;2023-02-18T08:40:37;17.40;;;9.35;;
59854;SDS011;45732;52.850;6.896;2023-02-18T08:43:04;18.92;;;9.35;;
59854;SDS011;45732;52.850;6.896;2023-02-18T08:45:30;14.93;;;9.25;;
59854;SDS011;45732;52.850;6.896;2023-02-18T08:47:56;18.02;;;8.20;;
59854;SDS011;45732;52.850;6.896;2023-02-18T08:50:22;18.52;;;8.60;;
59854;SDS011;45732;52.850;6.896;2023-02-18T08:52:51;14.35;;;7.88;;
59854;SDS011;45732;52.850;6.896;2023-02-18T08:55:17;14.30;;;7.80;;
59854;SDS011;45732;52.850;6.896;2023-02-18T08:57:45;13.93;;;7.60;;
59854;SDS011;45732;52.850;6.896;2023-02-18T09:00:12;15.68;;;7.95;;
59854;SDS011;45732;52.850;6.896;2023-02-18T09:02:40;13.68;;;7.65;;
59854;SDS011;45732;52.850;6.896;2023-02-18T09:05:05;17.42;;;7.80;;
59854;SDS011;45732;52.850;6.896;2023-02-18T09:07:33;16.25;;;7.43;;
59854;SDS011;45732;52.850;6.896;2023-02-18T09:09:59;16.58;;;7.03;;
59854;SDS011;45732;52.850;6.896;2023-02-18T09:12:25;14.27;;;7.40;;
59854;SDS011;45732;52.850;6.896;2023-02-18T09:14:50;12.05;;;6.82;;
59854;SDS011;45732;52.850;6.896;2023-02-18T09:17:16;16.02;;;6.80;;
59854;SDS011;45732;52.850;6.896;2023-02-18T09:19:42;13.55;;;7.25;;
59854;SDS011;45732;52.850;6.896;2023-02-18T09:22:07;15.18;;;7.05;;
59854;SDS011;45732;52.850;6.896;2023-02-18T09:24:40;12.15;;;7.00;;
59854;SDS011;45732;52.850;6.896;2023-02-18T09:27:06;12.65;;;6.70;;
59854;SDS011;45732;52.850;6.896;2023-02-18T09:29:33;13.70;;;6.38;;
59854;SDS011;45732;52.850;6.896;2023-02-18T09:31:59;11.45;;;6.10;;
59854;SDS011;45732;52.850;6.896;2023-02-18T09:34:26;10.52;;;5.47;;
59854;SDS011;45732;52.850;6.896;2023-02-18T09:36:52;12.40;;;5.47;;
59854;SDS011;45732;52.850;6.896;2023-02-18T09:39:17;12.15;;;5.20;;
59854;SDS011;45732;52.850;6.896;2023-02-18T09:41:45;9.73;;;5.15;;
59854;SDS011;45732;52.850;6.896;2023-02-18T09:46:45;11.15;;;4.85;;
59854;SDS011;45732;52.850;6.896;2023-02-18T09:49:16;12.10;;;4.80;;
59854;SDS011;45732;52.850;6.896;2023-02-18T09:51:47;14.13;;;5.53;;
59854;SDS011;45732;52.850;6.896;2023-02-18T09:54:14;12.95;;;5.45;;
59854;SDS011;45732;52.850;6.896;2023-02-18T09:56:42;12.10;;;4.72;;
59854;SDS011;45732;52.850;6.896;2023-02-18T09:59:14;12.30;;;4.60;;
59854;SDS011;45732;52.850;6.896;2023-02-18T10:01:42;10.70;;;4.35;;
59854;SDS011;45732;52.850;6.896;2023-02-18T10:04:16;15.07;;;5.07;;
59854;SDS011;45732;52.850;6.896;2023-02-18T10:06:48;12.38;;;4.13;;
59854;SDS011;45732;52.850;6.896;2023-02-18T10:09:20;12.50;;;4.70;;
59854;SDS011;45732;52.850;6.896;2023-02-18T10:12:15;13.57;;;4.63;;
59854;SDS011;45732;52.850;6.896;2023-02-18T10:14:57;13.52;;;4.35;;
59854;SDS011;45732;52.850;6.896;2023-02-18T10:17:28;13.10;;;4.07;;
59854;SDS011;45732;52.850;6.896;2023-02-18T10:19:56;13.63;;;4.30;;
59854;SDS011;45732;52.850;6.896;2023-02-18T10:22:24;12.98;;;4.80;;
59854;SDS011;45732;52.850;6.896;2023-02-18T10:24:56;13.68;;;4.07;;
59854;SDS011;45732;52.850;6.896;2023-02-18T10:27:28;11.68;;;4.00;;
59854;SDS011;45732;52.850;6.896;2023-02-18T10:29:59;11.23;;;4.10;;
59854;SDS011;45732;52.850;6.896;2023-02-18T10:32:39;13.73;;;4.90;;
59854;SDS011;45732;52.850;6.896;2023-02-18T10:35:16;15.05;;;4.60;;
59854;SDS011;45732;52.850;6.896;2023-02-18T10:41:05;16.60;;;4.25;;
59854;SDS011;45732;52.850;6.896;2023-02-18T10:46:38;15.43;;;4.38;;
59854;SDS011;45732;52.850;6.896;2023-02-18T10:52:12;15.50;;;3.90;;
59854;SDS011;45732;52.850;6.896;2023-02-18T10:57:17;17.77;;;3.80;;
59854;SDS011;45732;52.850;6.896;2023-02-18T10:59:55;17.95;;;3.78;;
59854;SDS011;45732;52.850;6.896;2023-02-18T11:02:27;16.05;;;3.70;;
59854;SDS011;45732;52.850;6.896;2023-02-18T11:04:56;17.88;;;3.80;;
59854;SDS011;45732;52.850;6.896;2023-02-18T11:07:25;21.55;;;4.13;;
59854;SDS011;45732;52.850;6.896;2023-02-18T11:09:57;14.38;;;3.47;;
59854;SDS011;45732;52.850;6.896;2023-02-18T11:12:25;17.70;;;3.30;;
59854;SDS011;45732;52.850;6.896;2023-02-18T11:15:30;19.90;;;3.97;;
59854;SDS011;45732;52.850;6.896;2023-02-18T11:18:12;16.63;;;4.15;;
59854;SDS011;45732;52.850;6.896;2023-02-18T11:21:34;15.88;;;3.83;;
59854;SDS011;45732;52.850;6.896;2023-02-18T11:23:49;17.52;;;3.60;;
59854;SDS011;45732;52.850;6.896;2023-02-18T11:26:17;16.00;;;3.25;;
59854;SDS011;45732;52.850;6.896;2023-02-18T11:29:10;12.30;;;3.15;;
59854;SDS011;45732;52.850;6.896;2023-02-18T11:31:45;15.90;;;3.47;;
59854;SDS011;45732;52.850;6.896;2023-02-18T11:34:20;15.98;;;2.95;;
59854;SDS011;45732;52.850;6.896;2023-02-18T11:36:50;17.02;;;3.28;;
59854;SDS011;45732;52.850;6.896;2023-02-18T11:39:23;15.45;;;2.90;;
59854;SDS011;45732;52.850;6.896;2023-02-18T11:41:57;14.45;;;3.00;;
59854;SDS011;45732;52.850;6.896;2023-02-18T11:46:59;13.23;;;3.53;;
59854;SDS011;45732;52.850;6.896;2023-02-18T11:49:58;15.07;;;2.97;;
59854;SDS011;45732;52.850;6.896;2023-02-18T11:52:27;14.90;;;2.97;;
59854;SDS011;45732;52.850;6.896;2023-02-18T11:55:12;14.55;;;3.33;;
59854;SDS011;45732;52.850;6.896;2023-02-18T11:57:40;13.85;;;3.55;;
59854;SDS011;45732;52.850;6.896;2023-02-18T12:03:14;11.57;;;3.40;;
59854;SDS011;45732;52.850;6.896;2023-02-18T12:06:01;13.32;;;2.92;;
59854;SDS011;45732;52.850;6.896;2023-02-18T12:08:31;14.18;;;2.95;;
59854;SDS011;45732;52.850;6.896;2023-02-18T12:11:05;11.60;;;3.05;;
59854;SDS011;45732;52.850;6.896;2023-02-18T12:13:38;12.20;;;2.75;;
59854;SDS011;45732;52.850;6.896;2023-02-18T12:19:02;13.80;;;3.53;;
59854;SDS011;45732;52.850;6.896;2023-02-18T12:40:51;11.57;;;2.95;;
59854;SDS011;45732;52.850;6.896;2023-02-18T12:46:21;11.65;;;2.58;;
59854;SDS011;45732;52.850;6.896;2023-02-18T12:54:19;13.57;;;3.40;;
59854;SDS011;45732;52.850;6.896;2023-02-18T13:05:31;14.77;;;3.08;;
59854;SDS011;45732;52.850;6.896;2023-02-18T13:13:07;9.43;;;2.33;;
59854;SDS011;45732;52.850;6.896;2023-02-18T13:15:43;10.52;;;2.80;;
59854;SDS011;45732;52.850;6.896;2023-02-18T13:18:15;13.32;;;2.65;;
59854;SDS011;45732;52.850;6.896;2023-02-18T13:21:00;13.10;;;2.72;;
59854;SDS011;45732;52.850;6.896;2023-02-18T13:23:39;9.07;;;2.33;;
59854;SDS011;45732;52.850;6.896;2023-02-18T13:26:34;8.15;;;2.13;;
59854;SDS011;45732;52.850;6.896;2023-02-18T13:29:21;14.27;;;3.63;;
59854;SDS011;45732;52.850;6.896;2023-02-18T13:40:36;9.30;;;2.05;;
59854;SDS011;45732;52.850;6.896;2023-02-18T13:46:01;11.50;;;2.72;;
59854;SDS011;45732;52.850;6.896;2023-02-18T13:48:27;13.77;;;2.97;;
59854;SDS011;45732;52.850;6.896;2023-02-18T13:50:53;9.90;;;2.40;;
59854;SDS011;45732;52.850;6.896;2023-02-18T13:53:30;12.43;;;2.40;;
59854;SDS011;45732;52.850;6.896;2023-02-18T13:56:03;12.95;;;2.80;;
59854;SDS011;45732;52.850;6.896;2023-02-18T14:08:41;12.02;;;2.42;;
59854;SDS011;45732;52.850;6.896;2023-02-18T14:13:53;9.15;;;2.17;;
59854;SDS011;45732;52.850;6.896;2023-02-18T14:19:42;15.30;;;2.63;;
59854;SDS011;45732;52.850;6.896;2023-02-18T14:24:59;14.20;;;2.80;;
59854;SDS011;45732;52.850;6.896;2023-02-18T14:27:28;13.02;;;2.60;;
59854;SDS011;45732;52.850;6.896;2023-02-18T14:29:54;10.75;;;2.65;;
59854;SDS011;45732;52.850;6.896;2023-02-18T14:32:26;11.73;;;2.38;;
59854;SDS011;45732;52.850;6.896;2023-02-18T14:40:54;13.45;;;2.70;;
59854;SDS011;45732;52.850;6.896;2023-02-18T14:44:11;12.40;;;2.47;;
59854;SDS011;45732;52.850;6.896;2023-02-18T14:49:40;10.15;;;2.30;;
59854;SDS011;45732;52.850;6.896;2023-02-18T14:52:16;10.57;;;2.67;;
59854;SDS011;45732;52.850;6.896;2023-02-18T14:54:44;13.05;;;3.08;;
59854;SDS011;45732;52.850;6.896;2023-02-18T14:57:15;11.27;;;2.88;;
59854;SDS011;45732;52.850;6.896;2023-02-18T14:59:44;13.32;;;3.10;;
59854;SDS011;45732;52.850;6.896;2023-02-18T15:02:28;12.98;;;3.08;;
59854;SDS011;45732;52.850;6.896;2023-02-18T15:05:14;11.95;;;2.83;;
59854;SDS011;45732;52.850;6.896;2023-02-18T15:07:40;12.02;;;2.95;;
59854;SDS011;45732;52.850;6.896;2023-02-18T15:10:11;12.68;;;2.97;;
59854;SDS011;45732;52.850;6.896;2023-02-18T15:12:38;10.82;;;3.03;;
59854;SDS011;45732;52.850;6.896;2023-02-18T15:15:04;9.73;;;2.50;;
59854;SDS011;45732;52.850;6.896;2023-02-18T15:17:30;14.98;;;3.40;;
59854;SDS011;45732;52.850;6.896;2023-02-18T15:19:57;11.52;;;2.33;;
59854;SDS011;45732;52.850;6.896;2023-02-18T15:22:30;12.82;;;2.70;;
59854;SDS011;45732;52.850;6.896;2023-02-18T15:24:59;13.10;;;3.42;;
59854;SDS011;45732;52.850;6.896;2023-02-18T15:32:37;11.07;;;2.42;;
59854;SDS011;45732;52.850;6.896;2023-02-18T15:35:13;14.32;;;3.13;;
59854;SDS011;45732;52.850;6.896;2023-02-18T15:37:43;12.90;;;2.58;;
59854;SDS011;45732;52.850;6.896;2023-02-18T15:40:14;15.05;;;2.90;;
59854;SDS011;45732;52.850;6.896;2023-02-18T15:42:41;11.38;;;2.42;;
59854;SDS011;45732;52.850;6.896;2023-02-18T15:45:22;11.25;;;2.72;;
59854;SDS011;45732;52.850;6.896;2023-02-18T15:47:54;14.13;;;2.80;;
59854;SDS011;45732;52.850;6.896;2023-02-18T15:52:52;10.88;;;2.60;;
59854;SDS011;45732;52.850;6.896;2023-02-18T15:58:20;14.20;;;3.13;;
59854;SDS011;45732;52.850;6.896;2023-02-18T16:05:47;12.98;;;2.80;;
59854;SDS011;45732;52.850;6.896;2023-02-18T16:08:14;13.00;;;2.92;;
59854;SDS011;45732;52.850;6.896;2023-02-18T16:13:36;10.65;;;2.72;;
59854;SDS011;45732;52.850;6.896;2023-02-18T16:19:20;15.80;;;2.88;;
59854;SDS011;45732;52.850;6.896;2023-02-18T16:21:48;16.40;;;2.88;;
59854;SDS011;45732;52.850;6.896;2023-02-18T16:24:27;13.82;;;2.42;;
59854;SDS011;45732;52.850;6.896;2023-02-18T16:26:57;14.20;;;2.80;;
59854;SDS011;45732;52.850;6.896;2023-02-18T16:29:26;12.77;;;2.72;;
59854;SDS011;45732;52.850;6.896;2023-02-18T16:31:59;11.75;;;3.00;;
59854;SDS011;45732;52.850;6.896;2023-02-18T16:34:25;13.65;;;2.97;;
59854;SDS011;45732;52.850;6.896;2023-02-18T16:36:51;13.63;;;2.60;;
59854;SDS011;45732;52.850;6.896;2023-02-18T16:39:36;15.65;;;2.75;;
59854;SDS011;45732;52.850;6.896;2023-02-18T16:42:02;20.98;;;3.92;;
59854;SDS011;45732;52.850;6.896;2023-02-18T16:44:30;11.95;;;2.90;;
59854;SDS011;45732;52.850;6.896;2023-02-18T16:46:57;13.57;;;2.80;;
59854;SDS011;45732;52.850;6.896;2023-02-18T16:49:23;13.07;;;2.85;;
59854;SDS011;45732;52.850;6.896;2023-02-18T16:51:49;13.57;;;2.53;;
59854;SDS011;45732;52.850;6.896;2023-02-18T16:54:14;16.20;;;3.00;;
59854;SDS011;45732;52.850;6.896;2023-02-18T16:56:40;12.45;;;2.60;;
59854;SDS011;45732;52.850;6.896;2023-02-18T16:59:06;15.48;;;2.80;;
59854;SDS011;45732;52.850;6.896;2023-02-18T17:01:35;15.65;;;2.72;;
59854;SDS011;45732;52.850;6.896;2023-02-18T17:04:12;14.80;;;2.72;;
59854;SDS011;45732;52.850;6.896;2023-02-18T17:06:39;15.27;;;2.92;;
59854;SDS011;45732;52.850;6.896;2023-02-18T17:09:38;14.40;;;2.47;;
59854;SDS011;45732;52.850;6.896;2023-02-18T17:11:57;16.73;;;2.83;;
59854;SDS011;45732;52.850;6.896;2023-02-18T17:14:23;15.45;;;2.97;;
59854;SDS011;45732;52.850;6.896;2023-02-18T17:16:50;15.27;;;3.10;;
59854;SDS011;45732;52.850;6.896;2023-02-18T17:19:17;14.63;;;2.60;;
59854;SDS011;45732;52.850;6.896;2023-02-18T17:21:43;17.58;;;3.22;;
59854;SDS011;45732;52.850;6.896;2023-02-18T17:24:12;15.55;;;2.92;;
59854;SDS011;45732;52.850;6.896;2023-02-18T17:26:39;15.40;;;2.63;;
59854;SDS011;45732;52.850;6.896;2023-02-18T17:29:05;13.20;;;2.70;;